Time;durP1;ratioP1;P1;durP2;ratioP2;P2;SDS_P1;SDS_P2;PMS_P1;PMS_P2;Temp;Humidity;BMP_temperature;BMP_pressure;BME280_temperature;BME280_humidity;BME280_pressure;Samples;Min_cycle;Max_cycle;Signal;HPM_P1;HPM_P2
2022/03/08 00:01:11;;;;;;;21.83;14.82;;;20.40;57.40;;;;;;5088741;28;20045;-77
2022/03/08 00:03:37;;;;;;;21.23;13.82;;;20.40;57.30;;;;;;5095660;28;20056;-77
2022/03/08 00:06:03;;;;;;;22.05;14.48;;;20.40;57.10;;;;;;5095948;28;20044;-77
2022/03/08 00:08:29;;;;;;;18.00;14.30;;;20.50;57.10;;;;;;5093850;28;20040;-77
2022/03/08 00:10:55;;;;;;;23.17;14.32;;;20.40;56.80;;;;;;5094778;28;20104;-75
2022/03/08 00:13:21;;;;;;;19.85;14.45;;;20.40;56.80;;;;;;5095715;28;20043;-75
2022/03/08 00:15:48;;;;;;;24.98;14.55;;;20.50;56.50;;;;;;5063395;28;20052;-76
2022/03/08 00:18:15;;;;;;;20.40;14.35;;;20.50;56.80;;;;;;5081145;28;20067;-76
2022/03/08 00:20:42;;;;;;;20.58;14.95;;;20.60;57.10;;;;;;5095156;28;20044;-76
2022/03/08 00:23:08;;;;;;;21.90;13.50;;;20.50;57.40;;;;;;5095382;28;20057;-76
2022/03/08 00:25:35;;;;;;;20.95;14.65;;;20.50;57.50;;;;;;5095588;28;20040;-76
2022/03/08 00:28:01;;;;;;;20.40;13.50;;;20.50;57.70;;;;;;5095855;28;20048;-76
2022/03/08 00:30:29;;;;;;;22.55;14.65;;;20.50;57.70;;;;;;5081425;28;20146;-76
2022/03/08 00:32:55;;;;;;;23.15;15.40;;;20.50;57.70;;;;;;5077112;28;20037;-76
2022/03/08 00:35:23;;;;;;;23.40;15.85;;;20.60;57.60;;;;;;5096125;28;20040;-76
2022/03/08 00:37:50;;;;;;;21.20;13.98;;;20.50;57.70;;;;;;5059632;28;20032;-76
2022/03/08 00:40:19;;;;;;;19.63;13.90;;;20.60;57.80;;;;;;5077087;28;20036;-76
2022/03/08 00:42:46;;;;;;;22.70;15.13;;;20.60;57.90;;;;;;5078181;28;20044;-76
2022/03/08 00:45:13;;;;;;;21.15;14.10;;;20.40;57.60;;;;;;5083089;28;20459;-76
2022/03/08 00:47:40;;;;;;;19.55;13.75;;;20.40;58.00;;;;;;5097423;28;20045;-76
2022/03/08 00:50:10;;;;;;;24.13;15.27;;;20.40;58.00;;;;;;5103126;28;20104;-75
2022/03/08 00:52:36;;;;;;;21.20;14.82;;;20.40;58.20;;;;;;5099416;28;20064;-76
2022/03/08 00:55:05;;;;;;;19.13;13.88;;;20.40;58.30;;;;;;5081848;28;20068;-76
2022/03/08 00:57:32;;;;;;;19.90;15.40;;;20.40;58.80;;;;;;5099153;28;20028;-76
2022/03/08 00:59:58;;;;;;;18.92;13.52;;;20.40;58.60;;;;;;5088218;28;20132;-76
2022/03/08 01:02:24;;;;;;;20.60;15.23;;;20.30;58.80;;;;;;5114708;28;20044;-76
2022/03/08 01:04:50;;;;;;;19.80;13.90;;;20.40;58.80;;;;;;5084990;28;20037;-76
2022/03/08 01:07:17;;;;;;;27.88;15.27;;;20.30;59.10;;;;;;5079066;28;20039;-76
2022/03/08 01:09:44;;;;;;;19.92;14.63;;;20.40;58.80;;;;;;5099276;28;20037;-76
2022/03/08 01:12:10;;;;;;;21.30;13.95;;;20.40;58.60;;;;;;5099088;28;20044;-76
2022/03/08 01:14:36;;;;;;;21.63;13.88;;;20.40;58.60;;;;;;5089544;28;20040;-76
2022/03/08 01:17:04;;;;;;;18.70;13.05;;;20.40;58.50;;;;;;5092290;28;20055;-76
2022/03/08 01:19:30;;;;;;;21.70;14.27;;;20.30;58.40;;;;;;5082480;28;20041;-76
2022/03/08 01:21:57;;;;;;;19.52;13.38;;;20.40;58.40;;;;;;5078360;28;20040;-75
2022/03/08 01:24:23;;;;;;;20.52;13.05;;;20.40;58.20;;;;;;5078825;28;20104;-76
2022/03/08 01:26:49;;;;;;;18.55;13.25;;;20.40;58.10;;;;;;5095919;28;20424;-76
2022/03/08 01:29:16;;;;;;;17.30;12.65;;;20.50;58.00;;;;;;5096390;28;20123;-76
2022/03/08 01:31:43;;;;;;;19.10;13.30;;;20.40;57.90;;;;;;5092193;28;20048;-76
2022/03/08 01:34:09;;;;;;;18.70;13.18;;;20.40;57.80;;;;;;5109283;28;20044;-76
2022/03/08 01:36:35;;;;;;;18.50;13.68;;;20.50;57.70;;;;;;5098583;28;20040;-76
2022/03/08 01:39:03;;;;;;;19.80;14.25;;;20.40;57.60;;;;;;5092717;28;20048;-76
2022/03/08 01:41:30;;;;;;;19.45;12.77;;;20.50;57.60;;;;;;5077824;28;20048;-76
2022/03/08 01:43:57;;;;;;;19.17;13.60;;;20.50;57.60;;;;;;5080473;28;20033;-76
2022/03/08 01:46:23;;;;;;;22.58;13.45;;;20.50;57.90;;;;;;5087894;28;20052;-76
2022/03/08 01:48:50;;;;;;;20.70;13.65;;;20.50;57.60;;;;;;5076480;28;20074;-76
2022/03/08 01:51:17;;;;;;;21.58;13.23;;;20.40;57.80;;;;;;5080744;28;20063;-76
2022/03/08 01:53:44;;;;;;;19.38;13.23;;;20.30;57.90;;;;;;5098379;28;20122;-76
2022/03/08 01:56:11;;;;;;;15.95;12.82;;;20.40;58.20;;;;;;5096304;28;20094;-76
2022/03/08 01:58:38;;;;;;;19.40;12.70;;;20.40;58.50;;;;;;5096735;28;20056;-76
2022/03/08 02:01:06;;;;;;;17.25;13.18;;;20.30;58.80;;;;;;5100510;28;20067;-76
2022/03/08 02:03:33;;;;;;;15.55;11.55;;;20.20;58.80;;;;;;5097789;28;20499;-76
2022/03/08 02:05:59;;;;;;;16.33;11.48;;;20.30;59.00;;;;;;5096625;28;20078;-76
2022/03/08 02:08:26;;;;;;;18.92;12.15;;;20.30;59.10;;;;;;5098050;28;20070;-76
2022/03/08 02:10:53;;;;;;;16.83;11.70;;;20.30;59.10;;;;;;5097442;28;20113;-76
2022/03/08 02:13:20;;;;;;;18.33;11.38;;;20.30;59.20;;;;;;5097348;28;20127;-76
2022/03/08 02:15:50;;;;;;;20.20;11.90;;;20.20;59.30;;;;;;5084656;28;20040;-76
2022/03/08 02:18:16;;;;;;;15.60;12.00;;;20.20;59.30;;;;;;5118160;28;20058;-76
2022/03/08 02:20:44;;;;;;;20.58;11.90;;;20.10;59.40;;;;;;5085127;28;20108;-76
2022/03/08 02:23:10;;;;;;;15.57;10.57;;;20.40;59.30;;;;;;5077759;28;20041;-76
2022/03/08 02:25:36;;;;;;;16.75;11.27;;;20.30;59.00;;;;;;5088292;28;20036;-76
2022/03/08 02:28:03;;;;;;;18.17;11.85;;;20.30;58.90;;;;;;5096234;28;20049;-76
2022/03/08 02:30:30;;;;;;;16.40;10.90;;;20.30;58.90;;;;;;5084277;28;20053;-76
2022/03/08 02:32:56;;;;;;;14.38;10.68;;;20.30;58.90;;;;;;5096833;28;20037;-76
2022/03/08 02:35:26;;;;;;;16.13;10.80;;;20.30;58.70;;;;;;5088541;28;20056;-76
2022/03/08 02:37:58;;;;;;;16.17;10.77;;;20.30;58.70;;;;;;5097586;28;20036;-76
2022/03/08 02:40:28;;;;;;;15.52;11.82;;;20.30;58.60;;;;;;5096654;28;20046;-76
2022/03/08 02:42:55;;;;;;;15.75;11.00;;;20.30;58.50;;;;;;5097495;28;20048;-76
2022/03/08 02:45:21;;;;;;;13.57;9.93;;;20.40;58.50;;;;;;5090204;28;20048;-76
2022/03/08 02:47:48;;;;;;;14.43;10.23;;;20.40;58.50;;;;;;5096502;28;20040;-76
2022/03/08 02:50:15;;;;;;;13.07;10.27;;;20.40;58.40;;;;;;5091796;28;20112;-76
2022/03/08 02:52:43;;;;;;;12.75;9.75;;;20.40;58.20;;;;;;5097133;28;20051;-76
2022/03/08 02:55:12;;;;;;;14.38;10.50;;;20.40;58.20;;;;;;5096500;28;20051;-76
2022/03/08 02:57:39;;;;;;;14.32;10.25;;;20.40;58.10;;;;;;5097083;28;20036;-76
2022/03/08 03:00:08;;;;;;;14.65;10.88;;;20.40;58.20;;;;;;5094857;28;20075;-76
2022/03/08 03:02:34;;;;;;;14.07;10.65;;;20.30;58.30;;;;;;5097924;28;20041;-76
2022/03/08 03:05:00;;;;;;;16.10;10.50;;;20.30;58.50;;;;;;5095124;28;20043;-76
2022/03/08 03:07:26;;;;;;;15.65;10.10;;;20.40;58.70;;;;;;5095261;28;20047;-76
2022/03/08 03:09:53;;;;;;;16.25;10.38;;;20.30;58.90;;;;;;5088096;28;20048;-76
2022/03/08 03:12:19;;;;;;;15.18;10.57;;;20.20;58.90;;;;;;5076756;28;20040;-76
2022/03/08 03:14:45;;;;;;;16.70;12.02;;;20.30;59.10;;;;;;5081978;28;20051;-76
2022/03/08 03:17:11;;;;;;;16.90;11.30;;;20.30;59.30;;;;;;5110104;28;20032;-76
2022/03/08 03:19:37;;;;;;;17.38;11.40;;;20.20;59.20;;;;;;5101486;28;20125;-76
2022/03/08 03:22:05;;;;;;;16.42;11.05;;;20.30;59.70;;;;;;5077453;28;20064;-76
2022/03/08 03:24:31;;;;;;;20.45;11.02;;;20.10;59.80;;;;;;5093975;28;20048;-76
2022/03/08 03:26:57;;;;;;;16.65;11.00;;;20.10;59.80;;;;;;5076536;28;20048;-75
2022/03/08 03:29:23;;;;;;;13.77;10.50;;;20.00;59.90;;;;;;5082364;28;20040;-76
2022/03/08 03:31:50;;;;;;;13.27;9.95;;;20.00;60.10;;;;;;5095136;28;20044;-76
2022/03/08 03:34:16;;;;;;;12.50;9.88;;;20.10;60.00;;;;;;5096498;28;20036;-77
2022/03/08 03:36:42;;;;;;;15.18;10.25;;;20.10;59.60;;;;;;5085241;28;20787;-75
2022/03/08 03:39:08;;;;;;;15.85;10.25;;;20.20;59.40;;;;;;5076276;28;20075;-76
2022/03/08 03:41:35;;;;;;;16.25;10.00;;;20.10;59.40;;;;;;5092199;28;20044;-76
2022/03/08 03:44:01;;;;;;;14.32;10.40;;;20.10;59.40;;;;;;5095237;28;20062;-76
2022/03/08 03:46:27;;;;;;;14.32;10.43;;;20.10;59.30;;;;;;5096351;28;20064;-76
2022/03/08 03:48:53;;;;;;;13.82;10.02;;;20.10;59.40;;;;;;5096180;28;20074;-75
2022/03/08 03:51:20;;;;;;;15.10;9.93;;;20.00;59.50;;;;;;5089843;28;20053;-76
2022/03/08 03:53:46;;;;;;;15.02;11.43;;;20.00;59.70;;;;;;5058666;28;20067;-76
2022/03/08 03:56:12;;;;;;;15.05;10.02;;;20.00;59.50;;;;;;5077208;28;20040;-76
2022/03/08 03:58:38;;;;;;;15.80;10.38;;;20.10;59.50;;;;;;5079738;28;20033;-76
2022/03/08 04:01:05;;;;;;;13.15;10.00;;;20.00;59.30;;;;;;5108660;28;20051;-76
2022/03/08 04:03:31;;;;;;;15.05;10.00;;;20.20;59.30;;;;;;5095922;28;20100;-76
2022/03/08 04:05:57;;;;;;;14.23;9.73;;;20.10;59.10;;;;;;5094143;28;20048;-76
2022/03/08 04:08:23;;;;;;;13.13;9.93;;;20.10;59.10;;;;;;5096132;28;20040;-76
2022/03/08 04:10:51;;;;;;;12.90;9.23;;;20.10;59.00;;;;;;5094366;28;20045;-76
2022/03/08 04:13:17;;;;;;;13.65;10.00;;;20.20;58.80;;;;;;5093124;28;20096;-76
2022/03/08 04:15:44;;;;;;;14.48;10.18;;;20.20;58.70;;;;;;5077162;28;20044;-76
2022/03/08 04:18:11;;;;;;;19.50;10.35;;;20.20;58.70;;;;;;5094886;28;20866;-76
2022/03/08 04:20:39;;;;;;;15.13;10.63;;;20.20;58.60;;;;;;5090718;28;20059;-76
2022/03/08 04:23:05;;;;;;;22.75;10.32;;;20.20;58.50;;;;;;5100828;28;20036;-77
2022/03/08 04:25:31;;;;;;;18.30;10.75;;;20.10;58.70;;;;;;5090952;28;20095;-76
2022/03/08 04:27:58;;;;;;;15.50;10.40;;;20.10;58.90;;;;;;5082356;28;20084;-76
2022/03/08 04:30:24;;;;;;;15.15;10.18;;;20.10;59.00;;;;;;5097697;28;20048;-76
2022/03/08 04:32:50;;;;;;;17.92;10.52;;;20.10;59.10;;;;;;5102402;28;20111;-76
2022/03/08 04:35:19;;;;;;;14.10;10.07;;;20.00;59.20;;;;;;5101712;28;20851;-76
2022/03/08 04:37:46;;;;;;;15.40;10.20;;;20.10;59.70;;;;;;5087088;28;20040;-75
2022/03/08 04:40:14;;;;;;;17.77;9.85;;;20.10;59.50;;;;;;5065577;28;20056;-76
2022/03/08 04:42:41;;;;;;;18.30;10.63;;;20.10;59.40;;;;;;5082214;28;20068;-76
2022/03/08 04:45:09;;;;;;;14.80;9.95;;;20.20;59.60;;;;;;5099611;28;20066;-76
2022/03/08 04:47:36;;;;;;;14.95;9.32;;;20.20;59.40;;;;;;5102273;28;20037;-76
2022/03/08 04:50:06;;;;;;;15.27;10.60;;;20.20;59.60;;;;;;5101780;28;20103;-76
2022/03/08 04:52:32;;;;;;;14.75;10.52;;;20.20;59.70;;;;;;5100717;28;20036;-75
2022/03/08 04:54:58;;;;;;;14.35;10.52;;;20.30;59.50;;;;;;5038200;28;20042;-75
2022/03/08 04:57:24;;;;;;;17.13;10.93;;;20.10;59.20;;;;;;5102379;28;20040;-76
2022/03/08 04:59:51;;;;;;;13.00;9.65;;;20.20;59.30;;;;;;5100564;28;20041;-76
2022/03/08 05:02:17;;;;;;;18.77;10.32;;;20.10;59.30;;;;;;5100808;28;20075;-75
2022/03/08 05:04:43;;;;;;;13.35;9.85;;;20.00;59.10;;;;;;5102127;28;20107;-75
2022/03/08 05:07:09;;;;;;;16.08;10.13;;;20.10;59.20;;;;;;5099318;28;20040;-76
2022/03/08 05:09:35;;;;;;;16.35;10.23;;;20.00;59.20;;;;;;5102267;28;20036;-76
2022/03/08 05:12:02;;;;;;;14.82;10.70;;;20.00;59.50;;;;;;5101966;28;20052;-76
2022/03/08 05:14:28;;;;;;;15.13;10.55;;;20.00;59.60;;;;;;5083171;28;20040;-76
2022/03/08 05:16:54;;;;;;;14.07;9.65;;;20.00;60.10;;;;;;5087056;28;20032;-75
2022/03/08 05:19:20;;;;;;;17.52;10.30;;;20.00;60.30;;;;;;5081743;28;20037;-76
2022/03/08 05:21:46;;;;;;;22.52;10.55;;;20.00;60.10;;;;;;5098515;28;20059;-76
2022/03/08 05:24:13;;;;;;;17.90;10.27;;;20.00;60.00;;;;;;5084658;28;20044;-76
2022/03/08 05:26:39;;;;;;;17.60;10.88;;;20.10;59.70;;;;;;5086316;28;20108;-76
2022/03/08 05:29:07;;;;;;;17.63;10.98;;;20.10;59.80;;;;;;5082161;28;20042;-77
2022/03/08 05:31:34;;;;;;;15.68;9.70;;;20.10;59.40;;;;;;5080158;28;20074;-75
2022/03/08 05:34:00;;;;;;;17.13;11.05;;;20.10;59.60;;;;;;5064663;28;20067;-76
2022/03/08 05:36:27;;;;;;;18.92;10.55;;;20.20;59.10;;;;;;5085319;28;20100;-76
2022/03/08 05:38:53;;;;;;;21.25;11.30;;;20.30;58.70;;;;;;5082193;28;20037;-76
2022/03/08 05:41:20;;;;;;;14.18;10.63;;;20.40;58.50;;;;;;5097821;28;20040;-76
2022/03/08 05:43:46;;;;;;;15.20;10.65;;;20.30;58.60;;;;;;5098418;28;20040;-76
2022/03/08 05:46:12;;;;;;;16.20;11.77;;;20.40;58.60;;;;;;5097528;28;20040;-76
2022/03/08 05:48:38;;;;;;;15.18;10.18;;;20.30;58.70;;;;;;5117186;28;20046;-76
2022/03/08 05:51:05;;;;;;;15.18;10.60;;;20.30;58.60;;;;;;5116795;28;20039;-76
2022/03/08 05:53:31;;;;;;;17.52;10.52;;;20.40;58.40;;;;;;5113711;28;20063;-76
2022/03/08 05:55:58;;;;;;;15.95;11.60;;;20.40;58.50;;;;;;5103093;28;20049;-76
2022/03/08 05:58:24;;;;;;;16.85;9.85;;;20.30;58.60;;;;;;5118527;28;20032;-75
2022/03/08 06:00:49;;;;;;;17.00;10.70;;;20.30;58.80;;;;;;5083556;28;20071;-76
2022/03/08 06:03:15;;;;;;;18.15;10.77;;;20.30;59.10;;;;;;5096837;28;20036;-76
2022/03/08 06:05:42;;;;;;;14.68;10.27;;;20.20;59.00;;;;;;5099093;28;20044;-76
2022/03/08 06:08:08;;;;;;;20.00;11.48;;;20.20;59.20;;;;;;5097004;28;20044;-76
2022/03/08 06:10:34;;;;;;;24.45;11.88;;;20.20;59.30;;;;;;5096985;28;20044;-76
2022/03/08 06:13:00;;;;;;;21.23;11.63;;;20.30;59.80;;;;;;5083360;28;20065;-76
2022/03/08 06:15:26;;;;;;;15.48;10.70;;;20.20;59.40;;;;;;5096347;28;20041;-77
2022/03/08 06:17:53;;;;;;;17.73;11.88;;;20.20;59.70;;;;;;5100263;28;20036;-77
2022/03/08 06:20:19;;;;;;;11.82;8.88;;;20.10;59.10;;;;;;5101189;28;20104;-76
2022/03/08 06:22:45;;;;;;;11.20;7.45;;;20.20;48.80;;;;;;5091660;28;20036;-74
2022/03/08 06:25:12;;;;;;;8.27;5.75;;;20.10;46.20;;;;;;5095058;28;20041;-74
2022/03/08 06:27:38;;;;;;;9.48;7.15;;;20.30;45.30;;;;;;5094864;28;20049;-74
2022/03/08 06:30:05;;;;;;;11.27;5.78;;;20.30;45.50;;;;;;5096788;28;20044;-74
2022/03/08 06:32:31;;;;;;;11.35;6.47;;;20.20;42.80;;;;;;5096698;28;20044;-74
2022/03/08 06:34:57;;;;;;;18.10;11.50;;;20.40;41.20;;;;;;5097180;28;20098;-75
2022/03/08 06:37:23;;;;;;;17.90;12.00;;;20.60;39.60;;;;;;5096134;28;20036;-74
2022/03/08 06:39:49;;;;;;;14.60;8.40;;;20.70;39.00;;;;;;5097280;28;20043;-73
2022/03/08 06:42:16;;;;;;;12.32;8.75;;;20.80;40.80;;;;;;5096131;28;20064;-74
2022/03/08 06:44:43;;;;;;;9.25;7.07;;;20.90;41.00;;;;;;5095272;28;20063;-77
2022/03/08 06:47:09;;;;;;;12.23;8.98;;;21.00;43.10;;;;;;5095858;28;20089;-76
2022/03/08 06:49:41;;;;;;;15.68;12.52;;;21.00;42.20;;;;;;5096082;28;20051;-75
2022/03/08 06:52:10;;;;;;;11.77;8.43;;;21.10;42.80;;;;;;5095195;28;20085;-74
2022/03/08 06:54:37;;;;;;;17.52;11.82;;;21.20;42.30;;;;;;5094761;28;20049;-74
2022/03/08 06:57:03;;;;;;;24.35;10.98;;;21.20;43.90;;;;;;5095968;28;20043;-74
2022/03/08 06:59:30;;;;;;;18.67;11.48;;;21.20;43.30;;;;;;5094293;28;21727;-74
2022/03/08 07:01:58;;;;;;;20.13;11.20;;;21.20;44.80;;;;;;5094422;28;20044;-75
2022/03/08 07:04:25;;;;;;;21.98;12.77;;;21.30;44.20;;;;;;5096331;28;20044;-78
2022/03/08 07:06:51;;;;;;;22.67;12.18;;;21.30;43.30;;;;;;5087043;28;20051;-74
2022/03/08 07:09:17;;;;;;;17.40;10.27;;;21.30;42.30;;;;;;5096315;28;20049;-75
2022/03/08 07:11:43;;;;;;;18.65;11.18;;;21.30;39.80;;;;;;5095684;28;20040;-73
2022/03/08 07:14:15;;;;;;;18.90;11.40;;;21.30;47.70;;;;;;5094914;28;20044;-75
2022/03/08 07:16:46;;;;;;;16.13;11.25;;;21.50;53.80;;;;;;5095816;28;20048;-75
2022/03/08 07:19:13;;;;;;;14.48;9.35;;;21.40;54.50;;;;;;5096304;28;20040;-74
2022/03/08 07:21:40;;;;;;;18.08;10.15;;;21.30;55.50;;;;;;5095847;28;20048;-76
2022/03/08 07:24:06;;;;;;;13.27;8.85;;;21.20;55.20;;;;;;5095207;28;20036;-73
2022/03/08 07:26:32;;;;;;;11.23;7.57;;;21.10;56.00;;;;;;5096171;28;20048;-76
2022/03/08 07:28:58;;;;;;;13.32;9.98;;;21.30;54.80;;;;;;5095245;28;20047;-75
2022/03/08 07:31:25;;;;;;;11.13;6.68;;;21.30;52.40;;;;;;5095787;28;20037;-76
2022/03/08 07:33:51;;;;;;;13.02;8.68;;;21.40;50.30;;;;;;5061800;28;20045;-74
2022/03/08 07:36:18;;;;;;;19.38;7.25;;;21.50;53.00;;;;;;5095682;28;20108;-74
2022/03/08 07:38:44;;;;;;;17.52;10.63;;;21.60;55.10;;;;;;5094073;28;20048;-74
2022/03/08 07:41:10;;;;;;;16.23;11.20;;;21.70;54.20;;;;;;5096112;28;20075;-73
2022/03/08 07:43:37;;;;;;;16.75;10.73;;;21.70;47.40;;;;;;5095278;28;20060;-73
2022/03/08 07:46:04;;;;;;;16.55;11.90;;;21.40;48.20;;;;;;5094464;28;20044;-73
2022/03/08 07:48:30;;;;;;;12.80;9.52;;;21.40;44.10;;;;;;5095817;28;20047;-72
2022/03/08 07:50:56;;;;;;;14.65;8.77;;;21.30;47.00;;;;;;5096105;28;20040;-73
2022/03/08 07:53:22;;;;;;;13.05;10.68;;;21.30;46.10;;;;;;5095508;28;20100;-73
2022/03/08 07:55:48;;;;;;;16.02;10.98;;;21.30;44.60;;;;;;5095155;28;20097;-71
2022/03/08 07:58:15;;;;;;;9.88;7.25;;;21.20;43.30;;;;;;5106513;28;20036;-71
2022/03/08 08:00:41;;;;;;;16.75;9.63;;;21.10;46.30;;;;;;5096913;28;20060;-72
2022/03/08 08:03:08;;;;;;;15.07;10.68;;;21.40;42.90;;;;;;5095648;28;20051;-71
2022/03/08 08:05:35;;;;;;;13.48;9.18;;;21.20;44.50;;;;;;5095927;28;20464;-72
2022/03/08 08:08:03;;;;;;;11.60;7.38;;;21.10;46.00;;;;;;5091138;28;20066;-72
2022/03/08 08:10:30;;;;;;;10.10;6.55;;;21.20;44.00;;;;;;5092173;28;20056;-74
2022/03/08 08:12:56;;;;;;;12.73;9.45;;;21.10;46.80;;;;;;5091877;28;20048;-71
2022/03/08 08:15:23;;;;;;;14.73;9.35;;;21.30;46.60;;;;;;5088516;28;20064;-71
2022/03/08 08:17:49;;;;;;;11.52;9.95;;;21.20;46.90;;;;;;5082670;28;20037;-71
2022/03/08 08:20:16;;;;;;;13.95;9.38;;;21.20;47.50;;;;;;5095499;28;20037;-71
2022/03/08 08:22:42;;;;;;;13.98;9.85;;;21.20;48.20;;;;;;5094235;28;20040;-70
2022/03/08 08:25:10;;;;;;;15.88;10.15;;;21.20;49.00;;;;;;5094844;28;20047;-69
2022/03/08 08:27:37;;;;;;;15.63;9.88;;;21.30;49.50;;;;;;5095615;28;20064;-71
2022/03/08 08:30:05;;;;;;;14.18;8.85;;;21.30;49.90;;;;;;5095741;28;20067;-71
2022/03/08 08:32:31;;;;;;;13.40;9.50;;;21.20;49.80;;;;;;5095739;28;20045;-72
2022/03/08 08:34:57;;;;;;;53.22;35.40;;;21.30;50.40;;;;;;5095641;28;20207;-71
2022/03/08 08:37:23;;;;;;;19.40;12.77;;;21.40;47.50;;;;;;5095113;28;20039;-73
2022/03/08 08:39:49;;;;;;;13.85;9.50;;;21.40;39.70;;;;;;5094437;28;20060;-72
2022/03/08 08:42:15;;;;;;;10.23;7.25;;;21.50;42.40;;;;;;5095551;28;20063;-72
2022/03/08 08:44:42;;;;;;;10.35;5.60;;;21.60;39.80;;;;;;5095357;28;20048;-74
2022/03/08 08:47:08;;;;;;;7.95;5.38;;;21.60;39.00;;;;;;5095547;28;20635;-72
2022/03/08 08:49:34;;;;;;;8.55;5.55;;;21.60;38.70;;;;;;5095631;28;20040;-73
2022/03/08 08:52:00;;;;;;;15.77;9.60;;;21.60;38.70;;;;;;5095297;28;20061;-72
2022/03/08 08:54:26;;;;;;;9.23;6.82;;;21.60;37.50;;;;;;5095453;28;20037;-72
2022/03/08 08:56:52;;;;;;;14.25;9.43;;;21.70;36.10;;;;;;5095331;28;20040;-74
2022/03/08 08:59:18;;;;;;;15.55;7.97;;;21.70;50.00;;;;;;5095399;28;20044;-72
2022/03/08 09:01:44;;;;;;;12.40;6.40;;;21.70;50.20;;;;;;5095348;28;20060;-73
2022/03/08 09:04:10;;;;;;;13.82;8.00;;;21.80;51.00;;;;;;5095309;28;20056;-74
2022/03/08 09:06:37;;;;;;;9.63;7.15;;;21.90;49.80;;;;;;5095472;28;20040;-73
2022/03/08 09:09:03;;;;;;;10.93;8.45;;;21.80;51.70;;;;;;5098978;28;20040;-73
2022/03/08 09:11:30;;;;;;;12.55;8.77;;;21.80;52.30;;;;;;5098960;28;20059;-74
2022/03/08 09:13:59;;;;;;;12.25;7.85;;;21.90;52.50;;;;;;5098837;28;20043;-73
2022/03/08 09:16:26;;;;;;;12.95;8.43;;;21.90;51.60;;;;;;5099100;28;20036;-73
2022/03/08 09:18:52;;;;;;;12.25;7.50;;;22.00;52.20;;;;;;5098901;28;20040;-72
2022/03/08 09:21:19;;;;;;;11.57;8.50;;;21.90;52.20;;;;;;5098927;28;20100;-74
2022/03/08 09:23:46;;;;;;;11.02;8.30;;;21.90;52.10;;;;;;5098843;28;20044;-73
2022/03/08 09:26:12;;;;;;;10.73;7.72;;;21.90;52.10;;;;;;5098820;28;20050;-74
2022/03/08 09:28:38;;;;;;;11.75;7.45;;;21.90;52.50;;;;;;5099002;28;20049;-74
2022/03/08 09:31:05;;;;;;;10.85;7.45;;;21.90;52.40;;;;;;5098263;28;20041;-76
2022/03/08 09:33:31;;;;;;;9.55;7.00;;;21.90;53.00;;;;;;5098295;28;20036;-76
2022/03/08 09:35:57;;;;;;;9.00;6.75;;;21.80;53.30;;;;;;5097884;28;20048;-73
2022/03/08 09:38:23;;;;;;;12.27;7.20;;;21.80;53.30;;;;;;5099431;28;20032;-75
2022/03/08 09:40:52;;;;;;;11.05;6.93;;;21.70;53.10;;;;;;5098732;28;20040;-74
2022/03/08 09:43:18;;;;;;;11.20;6.75;;;21.80;53.70;;;;;;5099349;28;20050;-73
2022/03/08 09:45:45;;;;;;;8.55;6.10;;;21.70;53.60;;;;;;5111972;28;20050;-75
2022/03/08 09:48:11;;;;;;;8.85;6.28;;;21.70;53.60;;;;;;5119369;28;20043;-74
2022/03/08 09:50:38;;;;;;;5.95;4.90;;;21.80;53.60;;;;;;5118473;28;20115;-73
2022/03/08 09:53:04;;;;;;;8.95;5.90;;;21.60;53.40;;;;;;5118651;28;20028;-74
2022/03/08 09:58:19;;;;;;;11.30;6.65;;;21.70;54.60;;;;;;5119010;28;20036;-76
2022/03/08 10:00:45;;;;;;;9.20;6.68;;;21.70;53.00;;;;;;5118792;28;20086;-75
2022/03/08 10:03:11;;;;;;;7.75;6.32;;;21.60;56.80;;;;;;5118974;28;20044;-75
2022/03/08 10:05:40;;;;;;;12.13;7.53;;;21.60;59.20;;;;;;5118931;28;20032;-76
2022/03/08 10:08:21;;;;;;;10.15;7.18;;;21.50;56.60;;;;;;5118646;28;20109;-75
2022/03/08 10:11:00;;;;;;;10.38;7.45;;;21.50;57.70;;;;;;5118900;28;20036;-75
2022/03/08 10:13:37;;;;;;;8.43;6.30;;;21.40;56.40;;;;;;5105750;28;20037;-75
2022/03/08 10:16:15;;;;;;;6.30;3.60;;;21.50;42.80;;;;;;5098328;28;20047;-75
2022/03/08 10:18:50;;;;;;;6.47;4.68;;;21.60;38.00;;;;;;5097882;28;20044;-75
2022/03/08 10:21:38;;;;;;;9.25;6.30;;;21.70;36.20;;;;;;5098469;28;20068;-77
2022/03/08 10:24:22;;;;;;;8.70;6.93;;;21.70;36.50;;;;;;5098206;28;20070;-76
2022/03/08 10:26:59;;;;;;;7.78;5.45;;;21.80;36.60;;;;;;5098619;28;20048;-75
2022/03/08 10:29:36;;;;;;;9.18;7.15;;;21.80;35.30;;;;;;5098482;28;20535;-75
2022/03/08 10:32:18;;;;;;;9.20;6.82;;;21.70;35.50;;;;;;5097969;28;20694;-75
2022/03/08 10:34:48;;;;;;;7.22;5.55;;;21.80;34.90;;;;;;5078078;28;20065;-75
2022/03/08 10:37:20;;;;;;;6.95;5.03;;;21.80;36.40;;;;;;5077898;28;20040;-75
2022/03/08 10:39:54;;;;;;;6.30;4.30;;;21.70;35.90;;;;;;5091579;28;20056;-75
2022/03/08 10:42:21;;;;;;;3.72;3.38;;;21.70;36.40;;;;;;5097822;28;20117;-74
2022/03/08 10:44:48;;;;;;;5.28;4.78;;;21.70;35.80;;;;;;5097712;28;20051;-75
2022/03/08 10:47:16;;;;;;;6.38;3.60;;;21.70;37.30;;;;;;5098073;28;20047;-75
2022/03/08 10:49:54;;;;;;;4.88;3.70;;;21.70;36.60;;;;;;5097951;28;20044;-74
2022/03/08 10:52:35;;;;;;;4.68;3.95;;;21.70;35.60;;;;;;5097985;28;20107;-74
2022/03/08 10:55:29;;;;;;;13.57;3.75;;;21.70;37.50;;;;;;5097646;28;20054;-74
2022/03/08 10:58:01;;;;;;;6.68;4.75;;;21.80;39.30;;;;;;5077602;28;20430;-74
2022/03/08 11:00:29;;;;;;;8.70;4.00;;;22.00;39.60;;;;;;5081668;28;20071;-75
2022/03/08 11:02:57;;;;;;;4.75;3.15;;;22.00;42.10;;;;;;5102696;28;20040;-74
2022/03/08 11:05:26;;;;;;;6.38;3.90;;;22.10;40.10;;;;;;5087127;28;20037;-76
2022/03/08 11:07:53;;;;;;;6.72;3.72;;;22.30;48.40;;;;;;5096284;28;20052;-73
2022/03/08 11:10:21;;;;;;;5.28;4.07;;;22.90;48.30;;;;;;5100053;28;20041;-74
2022/03/08 11:12:48;;;;;;;7.90;4.70;;;23.10;48.30;;;;;;5095003;28;20040;-73
2022/03/08 11:15:16;;;;;;;4.57;3.83;;;23.30;48.10;;;;;;5095526;28;20040;-73
2022/03/08 11:17:44;;;;;;;6.32;4.45;;;23.30;48.20;;;;;;5094580;28;20062;-74
2022/03/08 11:20:12;;;;;;;5.70;3.75;;;23.30;48.30;;;;;;5094467;28;20040;-73
2022/03/08 11:22:39;;;;;;;4.88;3.75;;;23.20;48.30;;;;;;5092576;28;20044;-74
2022/03/08 11:25:08;;;;;;;4.82;3.25;;;23.20;48.70;;;;;;5096093;28;20063;-74
2022/03/08 11:27:36;;;;;;;4.15;3.35;;;23.20;49.10;;;;;;5097309;28;20040;-75
2022/03/08 11:30:04;;;;;;;3.25;2.67;;;23.00;49.40;;;;;;5095796;28;20040;-75
2022/03/08 11:32:40;;;;;;;4.47;2.55;;;23.10;49.90;;;;;;5096011;28;20053;-75
2022/03/08 11:35:18;;;;;;;2.80;2.47;;;22.80;49.80;;;;;;5096934;28;20103;-75
2022/03/08 11:37:50;;;;;;;5.15;2.53;;;22.90;50.80;;;;;;5097846;28;20033;-73
2022/03/08 11:40:20;;;;;;;3.78;2.30;;;22.70;51.20;;;;;;5095943;28;20040;-76
2022/03/08 11:42:52;;;;;;;3.00;2.72;;;22.70;51.90;;;;;;5099290;28;20048;-75
2022/03/08 11:45:27;;;;;;;3.07;1.90;;;22.70;52.00;;;;;;5091690;28;20068;-75
2022/03/08 11:48:02;;;;;;;2.40;2.20;;;22.80;50.90;;;;;;5078403;28;20036;-74
2022/03/08 11:50:28;;;;;;;2.22;1.67;;;22.80;51.00;;;;;;5077657;28;20044;-74
2022/03/08 11:53:05;;;;;;;2.08;1.73;;;22.70;52.10;;;;;;5095994;28;20037;-74
2022/03/08 11:55:34;;;;;;;1.50;1.38;;;22.70;52.00;;;;;;5095833;28;20111;-75
2022/03/08 11:58:14;;;;;;;1.42;1.05;;;22.80;52.10;;;;;;5095579;28;20075;-75
2022/03/08 12:00:40;;;;;;;1.23;1.08;;;22.80;51.90;;;;;;5098718;28;20060;-74
2022/03/08 12:03:13;;;;;;;0.70;0.70;;;22.80;52.10;;;;;;5108586;28;20085;-73
2022/03/08 12:05:44;;;;;;;1.58;1.48;;;22.80;51.90;;;;;;5100592;28;20064;-72
2022/03/08 12:08:29;;;;;;;1.38;1.23;;;22.80;52.20;;;;;;5083832;28;20051;-71
2022/03/08 12:11:03;;;;;;;3.97;1.45;;;22.80;42.80;;;;;;5096419;28;20048;-71
2022/03/08 12:13:37;;;;;;;1.63;1.33;;;22.70;40.50;;;;;;5095709;28;20044;-71
2022/03/08 12:16:10;;;;;;;0.93;0.90;;;22.60;39.40;;;;;;5089057;28;20036;-72
2022/03/08 12:18:40;;;;;;;1.87;0.93;;;22.60;36.30;;;;;;5075053;28;20029;-71
2022/03/08 12:21:16;;;;;;;4.00;1.15;;;22.50;37.70;;;;;;5088956;28;20284;-71
2022/03/08 12:23:48;;;;;;;2.78;1.50;;;22.50;36.50;;;;;;5094283;28;20041;-70
2022/03/08 12:26:26;;;;;;;1.60;1.15;;;22.50;37.40;;;;;;5095539;28;20034;-72
2022/03/08 12:29:11;;;;;;;3.17;1.40;;;22.50;36.70;;;;;;5094260;28;20035;-69
2022/03/08 12:32:06;;;;;;;2.10;1.30;;;22.40;36.00;;;;;;5084108;28;20060;-70
2022/03/08 12:34:40;;;;;;;1.98;1.10;;;22.20;35.80;;;;;;5070353;28;20040;-70
2022/03/08 12:37:06;;;;;;;;;;;22.20;48.40;;;;;;5084685;28;20123;-71
2022/03/08 12:39:52;;;;;;;1.60;1.35;;;22.30;49.80;;;;;;5077900;28;19905;-71